METAR Data
IDs: Format: Raw Decoded Include TAF

Data at: 1357 UTC 11 Dec 2018

KTME 111355Z AUTO 00000KT 9SM CLR 03/03 A3044 RMK AO2
KTME 111335Z AUTO 00000KT 8SM CLR 04/04 A3044 RMK AO2
KTME 111315Z AUTO 00000KT 7SM CLR 03/03 A3044 RMK AO2
KTME 111255Z AUTO 00000KT 9SM CLR 02/02 A3043 RMK AO2
KTME 111235Z AUTO 00000KT 7SM CLR 02/02 A3042 RMK AO2
KTME 111215Z AUTO 00000KT 9SM CLR 03/03 A3043 RMK AO2
KTME 111155Z AUTO 00000KT 9SM CLR 03/03 A3043 RMK AO2
KTME 111135Z AUTO 00000KT 8SM CLR 03/03 A3043 RMK AO2
KTME 111115Z AUTO 00000KT 9SM CLR 02/02 A3042 RMK AO2
KTME 111055Z AUTO 00000KT 9SM CLR 02/02 A3041 RMK AO2
KTME 111035Z AUTO 00000KT 8SM CLR 03/03 A3041 RMK AO2
KTME 111015Z AUTO 8SM CLR 03/03 A3041 RMK AO2
KTME 110955Z AUTO 09003KT 10SM CLR 03/03 A3041 RMK AO2
KTME 110935Z AUTO 09003KT 9SM CLR 02/02 A3041 RMK AO2
KTME 110915Z AUTO 07003KT 10SM CLR 03/03 A3042 RMK AO2
KTME 110855Z AUTO 00000KT 10SM CLR 03/03 A3042 RMK AO2
KTME 110835Z AUTO 00000KT 10SM CLR 02/02 A3042 RMK AO2
KTME 110815Z AUTO 00000KT 9SM CLR 03/02 A3042 RMK AO2
KTME 110755Z AUTO 00000KT 10SM CLR 04/02 A3042 RMK AO2
KTME 110735Z AUTO 00000KT 10SM CLR 05/03 A3042 RMK AO2
KTME 110715Z AUTO 00000KT 10SM CLR 04/03 A3042 RMK AO2
KTME 110655Z AUTO 00000KT 10SM CLR 04/04 A3042 RMK AO2
KTME 110635Z AUTO 00000KT 10SM CLR 04/03 A3042 RMK AO2
KTME 110615Z AUTO 00000KT 10SM CLR 04/03 A3042 RMK AO2
KTME 110555Z AUTO 00000KT 10SM CLR 05/04 A3042 RMK AO2
KTME 110535Z AUTO 00000KT 10SM CLR 05/04 A3042 RMK AO2
KTME 110515Z AUTO 00000KT 10SM CLR 05/04 A3042 RMK AO2
KTME 110455Z AUTO 00000KT 10SM CLR 05/04 A3042 RMK AO2
KTME 110435Z AUTO 00000KT 10SM CLR 05/04 A3042 RMK AO2
KTME 110415Z AUTO 00000KT 10SM CLR 05/05 A3042 RMK AO2
KTME 110355Z AUTO 00000KT 10SM CLR 05/03 A3041 RMK AO2
KTME 110335Z AUTO 00000KT 10SM CLR 06/04 A3042 RMK AO2
KTME 110315Z AUTO 00000KT 10SM CLR 06/04 A3042 RMK AO2
KTME 110255Z AUTO 00000KT 10SM FEW014 06/04 A3041 RMK AO2
KTME 110235Z AUTO 00000KT 10SM SCT014 SCT019 06/04 A3042 RMK AO2
KTME 110215Z AUTO 00000KT 10SM CLR 07/05 A3042 RMK AO2
KTME 110155Z AUTO 00000KT 10SM CLR 08/05 A3041 RMK AO2
KTME 110135Z AUTO 02003KT 10SM CLR 09/05 A3041 RMK AO2
KTME 110115Z AUTO 01005KT 10SM BKN015 08/03 A3041 RMK AO2
KTME 110055Z AUTO 35004KT 10SM OVC016 09/03 A3041 RMK AO2
KTME 110035Z AUTO 10SM OVC017 09/03 A3040 RMK AO2
KTME 110015Z AUTO 36003KT 10SM BKN017 OVC021 10/03 A3039 RMK AO2
KTME 102355Z AUTO 00000KT 10SM SCT020 11/03 A3039 RMK AO2
KTME 102335Z AUTO 00000KT 10SM CLR 12/02 A3039 RMK AO2
KTME 102315Z AUTO 00000KT 10SM CLR 12/02 A3038 RMK AO2
KTME 102255Z AUTO 35003KT 10SM CLR 13/02 A3038 RMK AO2
KTME 102235Z AUTO 35004KT 10SM CLR 14/02 A3038 RMK AO2
KTME 102215Z AUTO 36005KT 10SM CLR 14/01 A3037 RMK AO2
KTME 102155Z AUTO 31005KT 10SM CLR 14/01 A3037 RMK AO2
KTME 102135Z AUTO VRB04KT 10SM CLR 14/00 A3037 RMK AO2
KTME 102115Z AUTO 34007KT 300V010 10SM CLR 14/01 A3037 RMK AO2
KTME 102055Z AUTO 31004KT 10SM CLR 14/00 A3037 RMK AO2
KTME 102035Z AUTO VRB06KT 10SM CLR 14/01 A3037 RMK AO2
KTME 102015Z AUTO 30005KT 10SM CLR 14/01 A3037 RMK AO2
KTME 101955Z AUTO VRB05KT 10SM CLR 14/01 A3037 RMK AO2
KTME 101935Z AUTO 34007KT 10SM CLR 13/00 A3037 RMK AO2
KTME 101915Z AUTO 30006KT 10SM CLR 13/01 A3038 RMK AO2
KTME 101855Z AUTO 32006KT 10SM CLR 13/01 A3039 RMK AO2
KTME 101835Z AUTO 32007KT 10SM CLR 13/01 A3040 RMK AO2
KTME 101815Z AUTO VRB06G12KT 10SM CLR 12/01 A3041 RMK AO2
KTME 101755Z AUTO 36007KT 10SM CLR 12/01 A3042 RMK AO2
KTME 101735Z AUTO 35005KT 10SM CLR 12/02 A3042 RMK AO2
KTME 101715Z AUTO VRB05KT 10SM CLR 11/02 A3043 RMK AO2
KTME 101655Z AUTO 01007KT 10SM CLR 10/02 A3043 RMK AO2
KTME 101635Z AUTO 36004KT 10SM CLR 09/03 A3044 RMK AO2
KTME 101615Z AUTO 36003KT 10SM CLR 09/03 A3044 RMK AO2
KTME 101555Z AUTO 36005KT 9SM CLR 08/04 A3044 RMK AO2
KTME 101535Z AUTO 36006KT 9SM CLR 07/05 A3044 RMK AO2
KTME 101515Z AUTO 34006KT 8SM CLR 06/05 A3044 RMK AO2
KTME 101455Z AUTO 35006KT 8SM CLR 06/05 A3043 RMK AO2
KTME 101435Z AUTO 34005KT 6SM BR CLR 05/05 A3042 RMK AO2
KTME 101415Z AUTO 34005KT 4SM BR CLR 04/04 A3042 RMK AO2
KTME 101355Z AUTO 34005KT 3SM BR CLR 03/03 A3041 RMK AO2
KTME 101335Z AUTO 34004KT 3SM BR CLR 02/02 A3041 RMK AO2
KTME 101315Z AUTO 34005KT 3SM BR CLR 02/02 A3040 RMK AO2
KTME 101255Z AUTO 34004KT 4SM BR CLR 02/02 A3039 RMK AO2
KTME 101235Z AUTO 35004KT 4SM BR CLR 02/02 A3038 RMK AO2
KTME 101215Z AUTO 35004KT 4SM BR CLR 02/02 A3038 RMK AO2
KTME 101155Z AUTO 35004KT 4SM BR CLR 02/02 A3037 RMK AO2
KTME 101135Z AUTO 34004KT 5SM BR CLR 03/03 A3037 RMK AO2
KTME 101115Z AUTO 34005KT 5SM BR CLR 03/03 A3036 RMK AO2
KTME 101055Z AUTO 32004KT 5SM BR CLR 04/03 A3036 RMK AO2
KTME 101035Z AUTO 33003KT 6SM BR CLR 04/03 A3036 RMK AO2
KTME 101015Z AUTO 31005KT 6SM BR CLR 04/04 A3036 RMK AO2
KTME 100955Z AUTO 32004KT 6SM BR CLR 04/04 A3036 RMK AO2
KTME 100935Z AUTO 32004KT 6SM BR CLR 04/04 A3036 RMK AO2
KTME 100915Z AUTO 32003KT 6SM BR CLR 04/04 A3036 RMK AO2
KTME 100855Z AUTO 00000KT 6SM BR CLR 04/04 A3036 RMK AO2
KTME 100835Z AUTO 31003KT 6SM BR CLR 04/04 A3036 RMK AO2
KTME 100815Z AUTO 30004KT 6SM BR CLR 04/04 A3037 RMK AO2
KTME 100755Z AUTO 30005KT 7SM CLR 05/04 A3037 RMK AO2
KTME 100735Z AUTO 29005KT 6SM BR CLR 05/04 A3038 RMK AO2
KTME 100715Z AUTO 28004KT 7SM CLR 05/04 A3038 RMK AO2
KTME 100655Z AUTO 29004KT 6SM BR CLR 05/04 A3037 RMK AO2
KTME 100635Z AUTO 30005KT 7SM CLR 05/04 A3037 RMK AO2
KTME 100615Z AUTO 30004KT 7SM CLR 05/05 A3037 RMK AO2
KTME 100555Z AUTO 00000KT 7SM CLR 06/05 A3038 RMK AO2
KTME 100535Z AUTO 00000KT 7SM CLR 06/05 A3038 RMK AO2
KTME 100515Z AUTO 00000KT 8SM FEW029 06/05 A3038 RMK AO2
KTME 100455Z AUTO 00000KT 8SM BKN026 OVC030 06/05 A3038 RMK AO2
KTME 100435Z AUTO 31003KT 7SM SCT023 OVC029 06/05 A3038 RMK AO2
KTME 100415Z AUTO 32003KT 7SM OVC031 06/05 A3038 RMK AO2
KTME 100355Z AUTO 33004KT 7SM OVC031 06/05 A3038 RMK AO2
KTME 100335Z AUTO 33003KT 9SM OVC031 07/05 A3038 RMK AO2
KTME 100315Z AUTO 00000KT 9SM OVC030 07/05 A3037 RMK AO2
KTME 100255Z AUTO 00000KT 9SM OVC028 07/05 A3037 RMK AO2
KTME 100235Z AUTO 33003KT 10SM SCT021 OVC027 07/05 A3036 RMK AO2
KTME 100215Z AUTO 36004KT 10SM OVC021 08/05 A3035 RMK AO2